createdAt,value
2023-01-20T00:01:27.196Z,26.92
2023-01-20T00:03:55.758Z,28.65
2023-01-20T00:06:23.732Z,33.65
2023-01-20T00:08:54.294Z,37.50
2023-01-20T00:11:21.549Z,33.10
2023-01-20T00:13:51.034Z,35.80
2023-01-20T00:16:17.567Z,29.23
2023-01-20T00:18:44.084Z,32.95
2023-01-20T00:21:12.731Z,31.08
2023-01-20T00:23:40.458Z,29.73
2023-01-20T00:26:12.643Z,29.55
2023-01-20T00:28:39.442Z,27.25
2023-01-20T00:31:20.875Z,29.05
2023-01-20T00:33:48.990Z,28.40
2023-01-20T00:36:17.368Z,28.42
2023-01-20T00:38:44.398Z,29.13
2023-01-20T00:41:11.475Z,22.45
2023-01-20T00:43:38.429Z,23.55
2023-01-20T00:46:05.626Z,19.95
2023-01-20T00:48:32.808Z,20.40
2023-01-20T00:51:02.014Z,25.58
2023-01-20T00:53:29.025Z,26.58
2023-01-20T00:55:56.156Z,24.50
2023-01-20T00:58:22.911Z,22.05
2023-01-20T01:00:51.166Z,22.08
2023-01-20T01:03:18.000Z,25.02
2023-01-20T01:05:45.467Z,24.15
2023-01-20T01:08:12.180Z,21.40
2023-01-20T01:10:38.964Z,21.30
2023-01-20T01:13:05.922Z,18.38
2023-01-20T01:15:32.522Z,20.08
2023-01-20T01:17:59.853Z,19.73
2023-01-20T01:20:27.199Z,20.30
2023-01-20T01:22:53.753Z,20.60
2023-01-20T01:25:20.555Z,22.25
2023-01-20T01:27:47.064Z,20.23
2023-01-20T01:30:13.596Z,19.02
2023-01-20T01:32:40.429Z,20.85
2023-01-20T01:35:07.087Z,17.10
2023-01-20T01:37:33.547Z,18.20
2023-01-20T01:40:00.016Z,21.55
2023-01-20T01:42:26.841Z,18.52
2023-01-20T01:45:12.082Z,22.05
2023-01-20T01:47:53.295Z,19.52
2023-01-20T01:50:26.222Z,16.95
2023-01-20T01:52:55.549Z,16.08
2023-01-20T01:55:30.471Z,20.83
2023-01-20T01:57:59.762Z,20.00
2023-01-20T02:00:26.763Z,18.35
2023-01-20T02:02:54.699Z,21.90
2023-01-20T02:05:25.608Z,17.52
2023-01-20T02:07:52.393Z,20.58
2023-01-20T02:10:21.336Z,20.67
2023-01-20T02:12:51.247Z,20.00
2023-01-20T02:15:22.981Z,21.95
2023-01-20T02:18:25.086Z,20.23
2023-01-20T02:21:12.879Z,18.63
2023-01-20T02:23:58.288Z,21.17
2023-01-20T02:26:33.979Z,22.25
2023-01-20T02:29:03.500Z,20.27
2023-01-20T02:31:43.733Z,20.88
2023-01-20T02:34:41.191Z,20.45
2023-01-20T02:37:15.983Z,22.35
2023-01-20T02:39:55.937Z,22.08
2023-01-20T02:42:30.182Z,19.83
2023-01-20T02:45:08.930Z,23.13
2023-01-20T02:47:43.284Z,20.15
2023-01-20T02:50:23.888Z,19.88
2023-01-20T02:52:54.277Z,18.27
2023-01-20T02:55:31.627Z,21.55
2023-01-20T02:58:06.953Z,22.38
2023-01-20T03:00:40.258Z,20.80
2023-01-20T03:03:12.119Z,19.40
2023-01-20T03:05:45.851Z,22.90
2023-01-20T03:08:14.908Z,21.58
2023-01-20T03:10:42.888Z,19.80
2023-01-20T03:13:32.559Z,25.33
2023-01-20T03:16:03.153Z,29.58
2023-01-20T03:18:32.296Z,20.88
2023-01-20T03:21:03.325Z,24.67
2023-01-20T03:23:34.124Z,23.90
2023-01-20T03:26:07.078Z,20.67
2023-01-20T03:28:36.187Z,19.98
2023-01-20T03:31:13.135Z,20.13
2023-01-20T03:33:39.728Z,20.05
2023-01-20T03:36:06.807Z,20.10
2023-01-20T03:38:33.443Z,19.17
2023-01-20T03:41:04.470Z,18.73
2023-01-20T03:43:42.771Z,20.33
2023-01-20T03:46:19.880Z,23.58
2023-01-20T03:48:59.033Z,22.27
2023-01-20T03:51:34.617Z,20.90
2023-01-20T03:54:11.143Z,22.55
2023-01-20T03:56:51.330Z,20.60
2023-01-20T03:59:22.694Z,24.08
2023-01-20T04:01:49.893Z,20.52
2023-01-20T04:04:20.265Z,21.90
2023-01-20T04:06:49.631Z,20.33
2023-01-20T04:09:26.352Z,21.27
2023-01-20T04:11:55.320Z,24.00
2023-01-20T04:14:24.312Z,18.50
2023-01-20T04:16:56.916Z,19.92
2023-01-20T04:19:24.917Z,18.80
2023-01-20T04:22:05.043Z,17.45
2023-01-20T04:24:42.307Z,18.05
2023-01-20T04:27:09.027Z,16.80
2023-01-20T04:29:35.588Z,19.25
2023-01-20T04:32:05.008Z,17.08
2023-01-20T04:34:31.498Z,20.52
2023-01-20T04:36:58.063Z,17.17
2023-01-20T04:39:24.616Z,18.90
2023-01-20T04:41:51.240Z,17.73
2023-01-20T04:44:17.789Z,20.10
2023-01-20T04:46:45.412Z,25.33
2023-01-20T04:49:11.943Z,22.73
2023-01-20T04:51:38.467Z,22.73
2023-01-20T04:54:05.266Z,21.90
2023-01-20T04:56:31.801Z,22.42
2023-01-20T04:59:01.122Z,22.10
2023-01-20T05:01:27.698Z,23.58
2023-01-20T05:03:59.165Z,23.70
2023-01-20T05:06:25.705Z,18.48
2023-01-20T05:08:52.243Z,18.95
2023-01-20T05:11:18.777Z,21.35
2023-01-20T05:13:45.393Z,21.48
2023-01-20T05:16:12.607Z,22.35
2023-01-20T05:18:39.322Z,23.42
2023-01-20T05:21:08.703Z,23.23
2023-01-20T05:23:35.583Z,23.50
2023-01-20T05:26:02.129Z,27.05
2023-01-20T05:28:28.603Z,27.77
2023-01-20T05:30:55.191Z,26.17
2023-01-20T05:33:21.893Z,23.67
2023-01-20T05:35:48.423Z,20.63
2023-01-20T05:38:14.948Z,20.30
2023-01-20T05:40:41.471Z,18.02
2023-01-20T05:43:07.943Z,19.55
2023-01-20T05:45:34.435Z,17.63
2023-01-20T05:48:01.197Z,17.35
2023-01-20T05:50:30.813Z,24.25
2023-01-20T05:52:57.324Z,18.90
2023-01-20T05:55:23.843Z,15.98
2023-01-20T05:57:50.398Z,15.63
2023-01-20T06:00:19.472Z,15.68
2023-01-20T06:02:46.161Z,20.42
2023-01-20T06:05:13.137Z,18.33
2023-01-20T06:07:42.150Z,18.77
2023-01-20T06:10:11.475Z,22.13
2023-01-20T06:12:38.319Z,17.95
2023-01-20T06:15:05.376Z,16.23
2023-01-20T06:17:31.912Z,15.95
2023-01-20T06:20:00.696Z,14.82
2023-01-20T06:22:28.098Z,16.42
2023-01-20T06:24:54.679Z,14.85
2023-01-20T06:27:21.482Z,16.08
2023-01-20T06:29:47.939Z,16.27
2023-01-20T06:32:14.460Z,18.58
2023-01-20T06:34:43.233Z,17.20
2023-01-20T06:37:09.738Z,16.50
2023-01-20T06:39:36.230Z,15.48
2023-01-20T06:42:02.689Z,16.77
2023-01-20T06:44:29.359Z,20.40
2023-01-20T06:46:57.947Z,19.63
2023-01-20T06:49:24.439Z,20.20
2023-01-20T06:51:50.989Z,21.20
2023-01-20T06:54:17.968Z,19.15
2023-01-20T06:56:44.509Z,19.42
2023-01-20T06:59:12.095Z,19.33
2023-01-20T07:01:39.694Z,21.05
2023-01-20T07:04:12.861Z,19.27
2023-01-20T07:06:41.472Z,19.88
2023-01-20T07:09:10.577Z,19.10
2023-01-20T07:11:39.665Z,20.77
2023-01-20T07:14:06.877Z,21.20
2023-01-20T07:16:37.069Z,22.90
2023-01-20T07:19:04.363Z,22.85
2023-01-20T07:21:30.886Z,20.77
2023-01-20T07:24:03.156Z,24.27
2023-01-20T07:26:32.196Z,22.38
2023-01-20T07:28:59.523Z,24.33
2023-01-20T07:31:31.324Z,23.70
2023-01-20T07:33:58.209Z,22.42
2023-01-20T07:36:25.026Z,21.10
2023-01-20T07:38:52.910Z,22.75
2023-01-20T07:41:20.363Z,22.00
2023-01-20T07:43:51.777Z,28.65
2023-01-20T07:46:19.145Z,26.75
2023-01-20T07:48:46.051Z,24.48
2023-01-20T07:51:15.420Z,25.95
2023-01-20T07:53:47.095Z,21.63
2023-01-20T07:56:25.098Z,24.42
2023-01-20T07:58:53.670Z,26.08
2023-01-20T08:01:29.748Z,26.33
2023-01-20T08:03:57.464Z,25.40
2023-01-20T08:06:28.481Z,25.92
2023-01-20T08:08:57.807Z,24.63
2023-01-20T08:11:27.559Z,24.73
2023-01-20T08:13:54.068Z,26.42
2023-01-20T08:16:20.804Z,26.02
2023-01-20T08:18:47.833Z,22.33
2023-01-20T08:21:20.289Z,26.70
2023-01-20T08:23:46.787Z,24.95
2023-01-20T08:26:13.829Z,23.13
2023-01-20T08:28:40.467Z,19.95
2023-01-20T08:31:09.477Z,25.23
2023-01-20T08:33:36.578Z,21.63
2023-01-20T08:36:32.680Z,27.30
2023-01-20T08:39:02.486Z,20.25
2023-01-20T08:41:35.494Z,19.42
2023-01-20T08:44:04.766Z,24.40
2023-01-20T08:46:32.190Z,22.20
2023-01-20T08:48:58.953Z,23.48
2023-01-20T08:51:28.960Z,20.42
2023-01-20T08:56:40.719Z,23.30
2023-01-20T08:59:07.403Z,19.58
2023-01-20T09:01:38.375Z,23.38
2023-01-20T09:04:07.181Z,19.10
2023-01-20T09:06:42.801Z,19.02
2023-01-20T09:09:12.727Z,21.80
2023-01-20T09:11:40.326Z,24.60
2023-01-20T09:14:06.950Z,20.38
2023-01-20T09:16:33.457Z,19.63
2023-01-20T09:18:59.985Z,19.60
2023-01-20T09:21:26.526Z,20.38
2023-01-20T09:23:53.095Z,26.98
2023-01-20T09:26:34.423Z,30.35
2023-01-20T09:29:09.218Z,25.80
2023-01-20T09:31:44.461Z,24.38
2023-01-20T09:34:19.434Z,25.02
2023-01-20T09:36:49.335Z,24.52
2023-01-20T09:39:35.115Z,23.13
2023-01-20T09:42:34.533Z,23.38
2023-01-20T09:45:25.143Z,23.70
2023-01-20T09:48:01.046Z,24.42
2023-01-20T09:51:08.225Z,23.73
2023-01-20T09:54:00.834Z,22.35
2023-01-20T09:56:29.047Z,21.33
2023-01-20T09:59:08.068Z,26.38
2023-01-20T10:01:48.334Z,26.83
2023-01-20T10:04:29.792Z,22.65
2023-01-20T10:07:07.561Z,21.92
2023-01-20T10:09:38.273Z,23.35
2023-01-20T10:12:18.493Z,27.67
2023-01-20T10:14:49.082Z,23.27
2023-01-20T10:17:26.210Z,19.92
2023-01-20T10:20:07.893Z,19.58
2023-01-20T10:22:45.096Z,18.90
2023-01-20T10:25:58.163Z,22.67
2023-01-20T10:28:29.751Z,19.65
2023-01-20T10:30:58.563Z,19.42
2023-01-20T10:33:33.703Z,22.10
2023-01-20T10:36:00.836Z,21.10
2023-01-20T10:38:52.596Z,21.05
2023-01-20T10:41:26.975Z,18.45
2023-01-20T10:43:53.956Z,20.48
2023-01-20T10:46:29.171Z,22.05
2023-01-20T10:49:33.297Z,18.42
2023-01-20T10:52:02.758Z,15.02
2023-01-20T10:54:45.204Z,15.18
2023-01-20T10:57:14.336Z,16.23
2023-01-20T10:59:52.326Z,15.13
2023-01-20T11:02:27.761Z,15.98
2023-01-20T11:05:29.499Z,19.30
2023-01-20T11:07:58.354Z,15.38
2023-01-20T11:10:27.848Z,16.55
2023-01-20T11:12:59.599Z,20.15
2023-01-20T11:15:44.929Z,15.98
2023-01-20T11:18:14.323Z,17.30
2023-01-20T11:20:56.357Z,15.05
2023-01-20T11:23:39.200Z,14.48
2023-01-20T11:26:20.436Z,16.98
2023-01-20T11:28:54.407Z,16.60
2023-01-20T11:31:32.987Z,16.05
2023-01-20T11:34:02.327Z,21.30
2023-01-20T11:36:29.460Z,18.48
2023-01-20T11:38:57.163Z,26.08
2023-01-20T11:41:25.625Z,17.92
2023-01-20T11:44:00.320Z,19.65
2023-01-20T11:46:36.047Z,17.83
2023-01-20T11:49:13.846Z,20.63
2023-01-20T11:51:50.833Z,19.88
2023-01-20T11:54:26.413Z,19.08
2023-01-20T11:57:17.252Z,16.02
2023-01-20T11:59:49.482Z,17.35
2023-01-20T12:02:24.722Z,19.95
2023-01-20T12:05:17.012Z,19.15
2023-01-20T12:07:48.890Z,15.88
2023-01-20T12:10:32.226Z,16.58
2023-01-20T12:13:18.332Z,15.70
2023-01-20T12:15:53.843Z,17.80
2023-01-20T12:19:01.325Z,15.57
2023-01-20T12:21:37.204Z,13.52
2023-01-20T12:24:20.923Z,15.20
2023-01-20T12:26:48.297Z,14.98
2023-01-20T12:29:27.320Z,13.60
2023-01-20T12:31:54.518Z,13.60
2023-01-20T12:34:27.931Z,12.95
2023-01-20T12:37:23.388Z,13.52
2023-01-20T12:39:52.800Z,13.32
2023-01-20T12:42:41.291Z,13.38
2023-01-20T12:45:38.802Z,12.63
2023-01-20T12:48:31.038Z,14.80
2023-01-20T12:51:35.759Z,14.98
2023-01-20T12:54:21.162Z,15.02
2023-01-20T12:57:12.089Z,15.10
2023-01-20T13:00:14.990Z,14.45
2023-01-20T13:03:18.360Z,14.80
2023-01-20T13:05:44.879Z,16.02
2023-01-20T13:08:43.730Z,15.18
2023-01-20T13:11:28.387Z,13.50
2023-01-20T13:14:21.210Z,15.20
2023-01-20T13:17:07.936Z,13.07
2023-01-20T13:19:39.004Z,13.93
2023-01-20T13:22:31.901Z,13.52
2023-01-20T13:25:04.713Z,15.65
2023-01-20T13:27:37.461Z,14.70
2023-01-20T13:30:06.808Z,14.20
2023-01-20T13:32:36.536Z,14.70
2023-01-20T13:35:18.370Z,14.27
2023-01-20T13:37:54.227Z,14.38
2023-01-20T13:40:33.231Z,15.10
2023-01-20T13:43:00.279Z,13.93
2023-01-20T13:45:27.854Z,13.52
2023-01-20T13:48:05.865Z,14.25
2023-01-20T13:50:32.393Z,28.45
2023-01-20T13:53:15.070Z,26.08
2023-01-20T13:55:41.606Z,18.00
2023-01-20T13:58:15.615Z,16.70
2023-01-20T14:00:42.731Z,16.40
2023-01-20T14:03:30.032Z,20.38
2023-01-20T14:06:21.224Z,18.85
2023-01-20T14:08:49.735Z,22.73
2023-01-20T14:11:24.294Z,20.02
2023-01-20T14:13:55.090Z,19.33
2023-01-20T14:16:26.132Z,19.73
2023-01-20T14:18:58.645Z,22.00
2023-01-20T14:21:30.146Z,21.83
2023-01-20T14:23:57.176Z,17.98
2023-01-20T14:26:26.717Z,18.48
2023-01-20T14:28:55.555Z,20.25
2023-01-20T14:31:45.985Z,19.75
2023-01-20T14:34:30.389Z,22.15
2023-01-20T14:37:03.651Z,18.80
2023-01-20T14:39:30.937Z,19.00
2023-01-20T14:42:01.457Z,19.35
2023-01-20T14:44:30.658Z,23.42
2023-01-20T14:47:02.233Z,26.75
2023-01-20T14:49:33.467Z,25.60
2023-01-20T14:52:00.955Z,22.65
2023-01-20T14:54:34.268Z,20.15
2023-01-20T14:57:17.997Z,30.02
2023-01-20T15:02:28.269Z,17.40
2023-01-20T15:04:55.775Z,24.13
2023-01-20T15:07:24.035Z,16.75
2023-01-20T15:09:58.151Z,19.50
2023-01-20T15:12:42.568Z,27.30
2023-01-20T15:15:12.133Z,18.05
2023-01-20T15:18:04.864Z,18.08
2023-01-20T15:20:33.497Z,16.38
2023-01-20T15:23:00.691Z,17.67
2023-01-20T15:25:28.609Z,17.60
2023-01-20T15:27:57.117Z,17.23
2023-01-20T15:30:27.582Z,21.25
2023-01-20T15:32:55.546Z,19.48
2023-01-20T15:35:26.022Z,24.42
2023-01-20T15:37:53.913Z,22.67
2023-01-20T15:40:24.934Z,18.70
2023-01-20T15:42:53.376Z,22.70
2023-01-20T15:45:22.333Z,20.83
2023-01-20T15:47:51.168Z,20.38
2023-01-20T15:50:22.154Z,19.05
2023-01-20T15:52:49.364Z,19.23
2023-01-20T15:55:17.618Z,20.75
2023-01-20T15:57:47.035Z,18.65
2023-01-20T16:00:22.686Z,18.35
2023-01-20T16:02:51.694Z,20.20
2023-01-20T16:05:18.293Z,19.65
2023-01-20T16:07:47.697Z,19.23
2023-01-20T16:10:19.595Z,21.15
2023-01-20T16:12:47.071Z,21.73
2023-01-20T16:15:19.221Z,21.52
2023-01-20T16:17:45.874Z,23.70
2023-01-20T16:20:19.098Z,26.15
2023-01-20T16:22:45.723Z,22.52
2023-01-20T16:25:12.397Z,28.40
2023-01-20T16:27:38.990Z,39.40
2023-01-20T16:30:06.204Z,31.58
2023-01-20T16:32:32.806Z,26.58
2023-01-20T16:34:59.382Z,23.10
2023-01-20T16:37:25.977Z,21.95
2023-01-20T16:39:52.603Z,20.02
2023-01-20T16:42:19.150Z,18.58
2023-01-20T16:44:45.699Z,14.88
2023-01-20T16:47:12.269Z,17.33
2023-01-20T16:49:38.972Z,17.77
2023-01-20T16:52:05.555Z,16.95
2023-01-20T16:54:32.083Z,17.33
2023-01-20T16:56:58.765Z,15.02
2023-01-20T16:59:26.007Z,15.48
2023-01-20T17:01:52.650Z,43.53
2023-01-20T17:04:19.269Z,15.20
2023-01-20T17:06:45.857Z,17.23
2023-01-20T17:09:12.475Z,16.25
2023-01-20T17:11:40.454Z,16.90
2023-01-20T17:14:09.656Z,15.15
2023-01-20T17:16:37.204Z,16.88
2023-01-20T17:19:05.179Z,16.70
2023-01-20T17:21:34.530Z,20.70
2023-01-20T17:24:04.091Z,18.35
2023-01-20T17:26:33.722Z,17.75
2023-01-20T17:29:02.964Z,16.85
2023-01-20T17:31:31.877Z,16.70
2023-01-20T17:34:00.815Z,17.95
2023-01-20T17:36:29.528Z,13.85
2023-01-20T17:38:57.539Z,17.48
2023-01-20T17:41:24.084Z,18.45
2023-01-20T17:43:51.004Z,16.13
2023-01-20T17:46:28.721Z,16.15
2023-01-20T17:49:02.110Z,16.35
2023-01-20T17:54:00.242Z,19.92
2023-01-20T17:56:31.075Z,15.18
2023-01-20T17:59:00.233Z,14.93
2023-01-20T18:01:29.014Z,16.77
2023-01-20T18:03:58.756Z,14.20
2023-01-20T18:06:26.831Z,16.13
2023-01-20T18:08:58.323Z,16.85
2023-01-20T18:11:29.227Z,17.13
2023-01-20T18:13:57.588Z,15.80
2023-01-20T18:16:28.077Z,16.23
2023-01-20T18:18:58.719Z,14.13
2023-01-20T18:21:28.905Z,14.68
2023-01-20T18:23:55.951Z,18.35
2023-01-20T18:26:25.091Z,23.40
2023-01-20T18:28:56.046Z,18.55
2023-01-20T18:31:24.667Z,19.67
2023-01-20T18:33:54.726Z,18.45
2023-01-20T18:36:27.129Z,20.13
2023-01-20T18:38:56.645Z,22.75
2023-01-20T18:41:24.973Z,26.95
2023-01-20T18:43:51.929Z,36.83
2023-01-20T18:46:18.835Z,30.73
2023-01-20T18:48:47.344Z,29.25
2023-01-20T18:51:16.105Z,28.48
2023-01-20T18:53:44.487Z,31.30
2023-01-20T18:56:13.810Z,31.05
2023-01-20T18:58:45.730Z,32.67
2023-01-20T19:01:14.864Z,35.72
2023-01-20T19:03:41.597Z,35.58
2023-01-20T19:06:13.000Z,31.13
2023-01-20T19:08:41.189Z,35.38
2023-01-20T19:11:15.215Z,37.38
2023-01-20T19:13:43.645Z,41.45
2023-01-20T19:16:12.761Z,42.47
2023-01-20T19:18:44.740Z,45.00
2023-01-20T19:21:14.849Z,39.42
2023-01-20T19:23:42.198Z,40.58
2023-01-20T19:26:11.275Z,43.55
2023-01-20T19:28:38.813Z,43.92
2023-01-20T19:31:11.222Z,47.03
2023-01-20T19:33:40.597Z,42.92
2023-01-20T19:36:11.257Z,44.95
2023-01-20T19:38:38.579Z,44.45
2023-01-20T19:41:10.947Z,43.33
2023-01-20T19:43:38.419Z,45.30
2023-01-20T19:46:16.025Z,47.33
2023-01-20T19:48:43.107Z,44.72
2023-01-20T19:51:15.049Z,45.50
2023-01-20T19:53:43.236Z,46.65
2023-01-20T19:56:16.376Z,46.67
2023-01-20T19:58:43.980Z,45.10
2023-01-20T20:01:13.247Z,48.78
2023-01-20T20:03:40.545Z,44.80
2023-01-20T20:06:21.211Z,47.10
2023-01-20T20:08:47.980Z,44.40
2023-01-20T20:11:15.187Z,44.97
2023-01-20T20:13:42.067Z,47.85
2023-01-20T20:16:09.099Z,47.47
2023-01-20T20:18:36.103Z,41.35
2023-01-20T20:21:05.026Z,43.97
2023-01-20T20:23:31.826Z,55.35
2023-01-20T20:26:00.599Z,62.92
2023-01-20T20:28:28.378Z,55.95
2023-01-20T20:31:05.092Z,83.00
2023-01-20T20:33:32.121Z,48.10
2023-01-20T20:35:58.763Z,46.30
2023-01-20T20:38:25.924Z,44.40
2023-01-20T20:40:58.814Z,50.05
2023-01-20T20:43:26.313Z,47.85
2023-01-20T20:45:53.249Z,49.20
2023-01-20T20:48:20.101Z,49.60
2023-01-20T20:50:46.844Z,46.15
2023-01-20T20:53:13.552Z,42.83
2023-01-20T20:55:41.657Z,47.17
2023-01-20T20:58:09.563Z,43.38
2023-01-20T21:00:37.188Z,44.25
2023-01-20T21:03:11.122Z,42.17
2023-01-20T21:05:37.893Z,41.13
2023-01-20T21:08:06.053Z,40.47
2023-01-20T21:10:34.845Z,39.78
2023-01-20T21:13:01.448Z,41.85
2023-01-20T21:15:30.573Z,40.90
2023-01-20T21:17:58.397Z,46.75
2023-01-20T21:20:25.283Z,44.03
2023-01-20T21:22:52.144Z,45.33
2023-01-20T21:25:18.687Z,45.50
2023-01-20T21:27:47.691Z,44.38
2023-01-20T21:30:14.757Z,40.05
2023-01-20T21:32:41.579Z,40.17
2023-01-20T21:35:10.887Z,40.25
2023-01-20T21:37:39.846Z,42.00
2023-01-20T21:40:07.037Z,38.50
2023-01-20T21:42:33.709Z,42.75
2023-01-20T21:45:00.326Z,44.90
2023-01-20T21:47:26.988Z,43.05
2023-01-20T21:50:14.980Z,42.80
2023-01-20T21:52:41.770Z,42.88
2023-01-20T21:55:16.354Z,39.15
2023-01-20T21:57:43.249Z,38.25
2023-01-20T22:00:11.060Z,39.53
2023-01-20T22:02:37.759Z,41.15
2023-01-20T22:05:04.639Z,39.60
2023-01-20T22:07:31.241Z,42.35
2023-01-20T22:09:58.369Z,41.33
2023-01-20T22:12:25.159Z,41.22
2023-01-20T22:14:51.792Z,41.78
2023-01-20T22:17:18.370Z,41.67
2023-01-20T22:19:45.597Z,44.00
2023-01-20T22:22:19.788Z,41.72
2023-01-20T22:24:48.531Z,48.97
2023-01-20T22:27:15.135Z,38.78
2023-01-20T22:29:41.755Z,43.53
2023-01-20T22:32:08.336Z,42.22
2023-01-20T22:34:35.180Z,42.47
2023-01-20T22:37:02.310Z,40.25
2023-01-20T22:39:28.952Z,37.63
2023-01-20T22:41:57.991Z,35.00
2023-01-20T22:44:24.666Z,33.83
2023-01-20T22:46:51.273Z,35.92
2023-01-20T22:49:18.395Z,33.22
2023-01-20T22:51:45.074Z,31.95
2023-01-20T22:54:11.845Z,31.63
2023-01-20T22:56:40.902Z,30.90
2023-01-20T22:59:07.719Z,33.35
2023-01-20T23:01:35.416Z,29.83
2023-01-20T23:04:04.829Z,31.67
2023-01-20T23:06:34.084Z,30.52
2023-01-20T23:09:02.558Z,46.63
2023-01-20T23:11:32.516Z,98.60
2023-01-20T23:14:00.407Z,142.30
2023-01-20T23:16:27.206Z,113.32
2023-01-20T23:18:53.928Z,72.15
2023-01-20T23:21:21.452Z,59.42
2023-01-20T23:23:54.408Z,50.03
2023-01-20T23:26:26.655Z,33.38
2023-01-20T23:28:55.204Z,37.08
2023-01-20T23:31:25.428Z,36.22
2023-01-20T23:33:54.346Z,30.23
2023-01-20T23:36:28.324Z,33.63
2023-01-20T23:38:55.984Z,31.30
2023-01-20T23:41:27.610Z,30.35
2023-01-20T23:43:54.313Z,28.83
2023-01-20T23:46:20.920Z,28.38
2023-01-20T23:48:47.835Z,31.55
2023-01-20T23:51:14.867Z,26.52
2023-01-20T23:53:41.793Z,31.77
2023-01-20T23:56:20.753Z,29.35
2023-01-20T23:58:47.842Z,28.73
